Terminal Aerodrome Forecast
Issued by NWS Grand Forks, ND

Home | Current Version | Previous Version | Graphics & Text | Print | Product List | Glossary On
Versions: 1 2 3 4 5 6 7 8 9 10 11 12 13 14 15 16
000
FTUS43 KFGF 221500 AAB
TAFFAR
TAF AMD
KFAR 221552Z 2216/2312 10010KT 2SM -RA BR OVC003
     FM222100 08010KT 1SM -RA BR OVC003
     FM230000 07010KT 2SM -RASN BR OVC005
     FM230300 04011KT 2SM -SN OVC005=

USA.gov is the U.S. government's official web portal to all federal, state and local government web resources and services.